createdAt,value
2018-12-13T00:00:04.345Z,0
2018-12-13T00:01:04.458Z,0
2018-12-13T00:02:04.196Z,0
2018-12-13T00:03:04.181Z,0
2018-12-13T00:04:04.208Z,0
2018-12-13T00:05:04.155Z,0
2018-12-13T00:06:04.136Z,0
2018-12-13T00:07:04.119Z,0
2018-12-13T00:08:04.102Z,0
2018-12-13T00:09:04.089Z,0
2018-12-13T00:10:04.078Z,0
2018-12-13T00:11:04.064Z,0
2018-12-13T00:12:04.047Z,0
2018-12-13T00:13:04.032Z,0
2018-12-13T00:14:04.020Z,0
2018-12-13T00:15:04.013Z,0
2018-12-13T00:16:03.993Z,0
2018-12-13T00:17:03.980Z,0
2018-12-13T00:18:03.966Z,0
2018-12-13T00:19:03.954Z,0
2018-12-13T00:20:03.933Z,0
2018-12-13T00:21:03.918Z,0
2018-12-13T00:22:03.910Z,0
2018-12-13T00:23:03.890Z,0
2018-12-13T00:24:03.877Z,0
2018-12-13T00:25:03.861Z,0
2018-12-13T00:26:03.852Z,0
2018-12-13T00:27:03.831Z,0
2018-12-13T00:28:03.816Z,0
2018-12-13T00:29:03.797Z,0
2018-12-13T00:30:03.785Z,0
2018-12-13T00:31:03.776Z,0
2018-12-13T00:32:04.015Z,0
2018-12-13T00:33:03.742Z,0
2018-12-13T00:34:03.727Z,0
2018-12-13T00:35:03.714Z,0
2018-12-13T00:36:03.705Z,0
2018-12-13T00:37:03.690Z,0
2018-12-13T00:38:03.677Z,0
2018-12-13T00:39:03.655Z,0
2018-12-13T00:40:03.636Z,0
2018-12-13T00:41:03.629Z,0
2018-12-13T00:42:03.680Z,0
2018-12-13T00:43:03.643Z,0
2018-12-13T00:44:03.576Z,0
2018-12-13T00:45:03.567Z,0
2018-12-13T00:46:03.545Z,0
2018-12-13T00:47:03.554Z,0
2018-12-13T00:48:03.526Z,0
2018-12-13T00:49:03.505Z,0
2018-12-13T00:50:03.489Z,0
2018-12-13T00:51:03.244Z,0
2018-12-13T00:52:03.469Z,0
2018-12-13T00:53:03.448Z,0
2018-12-13T00:54:03.448Z,0
2018-12-13T00:55:03.420Z,0
2018-12-13T00:56:03.408Z,0
2018-12-13T00:57:03.385Z,0
2018-12-13T00:58:03.378Z,0
2018-12-13T00:59:03.356Z,0
2018-12-13T01:00:03.346Z,0
2018-12-13T01:01:03.344Z,0
2018-12-13T01:02:03.316Z,0
2018-12-13T01:03:03.611Z,0
2018-12-13T01:04:03.286Z,0
2018-12-13T01:05:03.266Z,0
2018-12-13T01:06:03.261Z,0
2018-12-13T01:07:03.247Z,0
2018-12-13T01:08:03.230Z,0
2018-12-13T01:09:03.216Z,0
2018-12-13T01:10:03.208Z,0
2018-12-13T01:11:03.242Z,0
2018-12-13T01:12:03.179Z,0
2018-12-13T01:13:03.167Z,0
2018-12-13T01:14:03.138Z,0
2018-12-13T01:15:03.189Z,0
2018-12-13T01:16:03.115Z,0
2018-12-13T01:17:03.106Z,0
2018-12-13T01:18:03.085Z,0
2018-12-13T01:19:03.078Z,0
2018-12-13T01:20:03.055Z,0
2018-12-13T01:21:03.035Z,0
2018-12-13T01:22:03.020Z,0
2018-12-13T01:23:03.009Z,0
2018-12-13T01:24:03.046Z,0
2018-12-13T01:25:02.995Z,0
2018-12-13T01:26:02.974Z,0
2018-12-13T01:27:02.956Z,0
2018-12-13T01:28:02.949Z,0
2018-12-13T01:29:02.926Z,0
2018-12-13T01:30:02.910Z,0
2018-12-13T01:31:02.893Z,0
2018-12-13T01:32:02.881Z,0
2018-12-13T01:33:02.859Z,0
2018-12-13T01:34:03.098Z,0
2018-12-13T01:35:02.829Z,0
2018-12-13T01:36:02.822Z,0
2018-12-13T01:37:02.803Z,0
2018-12-13T01:38:02.787Z,0
2018-12-13T01:39:02.787Z,0
2018-12-13T01:40:02.763Z,0
2018-12-13T01:41:02.744Z,0
2018-12-13T01:42:02.728Z,0
2018-12-13T01:43:02.718Z,0
2018-12-13T01:44:02.700Z,0
2018-12-13T01:45:02.689Z,0
2018-12-13T01:46:02.671Z,0
2018-12-13T01:47:02.664Z,0
2018-12-13T01:48:02.648Z,0
2018-12-13T01:49:02.627Z,0
2018-12-13T01:50:02.614Z,0
2018-12-13T01:51:02.601Z,0
2018-12-13T01:52:02.589Z,0
2018-12-13T01:53:02.571Z,0
2018-12-13T01:54:02.559Z,0
2018-12-13T01:55:02.538Z,0
2018-12-13T01:56:02.528Z,0
2018-12-13T01:57:02.512Z,0
2018-12-13T01:58:03.614Z,0
2018-12-13T01:59:02.480Z,0
2018-12-13T02:00:02.468Z,0
2018-12-13T02:01:02.464Z,0
2018-12-13T02:02:02.436Z,0
2018-12-13T02:03:02.427Z,0
2018-12-13T02:04:02.421Z,0
2018-12-13T02:05:02.404Z,0
2018-12-13T02:06:02.632Z,0
2018-12-13T02:07:08.243Z,0
2018-12-13T02:08:02.361Z,0
2018-12-13T02:09:02.343Z,0
2018-12-13T02:10:02.329Z,0
2018-12-13T02:11:02.304Z,0
2018-12-13T02:12:02.290Z,0
2018-12-13T02:13:02.328Z,0
2018-12-13T02:14:02.264Z,0
2018-12-13T02:15:02.249Z,0
2018-12-13T02:16:02.241Z,0
2018-12-13T02:17:02.223Z,0
2018-12-13T02:18:02.204Z,0
2018-12-13T02:19:02.190Z,0
2018-12-13T02:20:02.180Z,0
2018-12-13T02:21:02.165Z,0
2018-12-13T02:22:02.187Z,0
2018-12-13T02:23:02.137Z,0
2018-12-13T02:24:02.135Z,0
2018-12-13T02:25:02.109Z,0
2018-12-13T02:26:02.099Z,0
2018-12-13T02:27:02.079Z,0
2018-12-13T02:28:02.061Z,0
2018-12-13T02:29:02.056Z,0
2018-12-13T02:30:02.033Z,0
2018-12-13T02:31:02.024Z,0
2018-12-13T02:32:02.015Z,0
2018-12-13T02:33:02.007Z,0
2018-12-13T02:34:02.058Z,0
2018-12-13T02:35:01.984Z,0
2018-12-13T02:36:01.946Z,0
2018-12-13T02:37:08.603Z,0
2018-12-13T02:38:01.945Z,0
2018-12-13T02:39:01.907Z,0
2018-12-13T02:40:01.972Z,0
2018-12-13T02:41:01.891Z,0
2018-12-13T02:42:01.869Z,0
2018-12-13T02:43:01.860Z,0
2018-12-13T02:44:01.844Z,0
2018-12-13T02:45:01.831Z,0
2018-12-13T02:46:01.816Z,0
2018-12-13T02:47:01.799Z,0
2018-12-13T02:48:01.798Z,0
2018-12-13T02:49:01.765Z,0
2018-12-13T02:50:01.766Z,0
2018-12-13T02:51:01.740Z,0
2018-12-13T02:52:01.726Z,0
2018-12-13T02:53:01.709Z,0
2018-12-13T02:54:01.706Z,0
2018-12-13T02:55:01.701Z,0
2018-12-13T02:56:01.682Z,0
2018-12-13T02:57:01.652Z,0
2018-12-13T02:58:01.637Z,0
2018-12-13T02:59:01.634Z,0
2018-12-13T03:00:01.380Z,0
2018-12-13T03:01:01.598Z,0
2018-12-13T03:02:01.588Z,0
2018-12-13T03:03:01.568Z,0
2018-12-13T03:04:01.550Z,0
2018-12-13T03:05:01.538Z,0
2018-12-13T03:06:01.531Z,0
2018-12-13T03:07:01.528Z,0
2018-12-13T03:08:01.773Z,0
2018-12-13T03:09:01.537Z,0
2018-12-13T03:10:01.468Z,0
2018-12-13T03:11:01.458Z,0
2018-12-13T03:12:01.249Z,0
2018-12-13T03:13:01.426Z,0
2018-12-13T03:14:01.421Z,0
2018-12-13T03:15:01.423Z,0
2018-12-13T03:16:01.385Z,0
2018-12-13T03:17:01.367Z,0
2018-12-13T03:18:01.358Z,0
2018-12-13T03:19:01.336Z,0
2018-12-13T03:20:01.328Z,0
2018-12-13T03:21:01.319Z,0
2018-12-13T03:22:01.300Z,0
2018-12-13T03:23:01.300Z,0
2018-12-13T03:24:01.268Z,0
2018-12-13T03:25:01.250Z,0
2018-12-13T03:26:01.236Z,0
2018-12-13T03:27:01.231Z,0
2018-12-13T03:28:01.221Z,0
2018-12-13T03:29:01.202Z,0
2018-12-13T03:30:01.185Z,0
2018-12-13T03:31:01.218Z,0
2018-12-13T03:32:01.184Z,0
2018-12-13T03:33:01.149Z,0
2018-12-13T03:34:01.126Z,0
2018-12-13T03:35:01.119Z,0
2018-12-13T03:36:01.102Z,0
2018-12-13T03:37:01.089Z,0
2018-12-13T03:38:00.830Z,0
2018-12-13T03:39:01.356Z,0
2018-12-13T03:40:01.041Z,0
2018-12-13T03:41:01.038Z,0
2018-12-13T03:42:01.010Z,0
2018-12-13T03:43:01.010Z,0
2018-12-13T03:44:00.988Z,0
2018-12-13T03:45:00.980Z,0
2018-12-13T03:46:00.957Z,0
2018-12-13T03:47:00.947Z,0
2018-12-13T03:48:00.921Z,0
2018-12-13T03:49:00.910Z,0
2018-12-13T03:50:00.904Z,0
2018-12-13T03:51:00.889Z,0
2018-12-13T03:52:00.873Z,0
2018-12-13T03:53:00.860Z,0
2018-12-13T03:54:00.605Z,0
2018-12-13T03:55:00.833Z,0
2018-12-13T03:56:00.581Z,0
2018-12-13T03:57:00.795Z,0
2018-12-13T03:58:00.780Z,0
2018-12-13T03:59:00.771Z,0
2018-12-13T04:00:00.746Z,0
2018-12-13T04:01:00.735Z,0
2018-12-13T04:02:00.745Z,0
2018-12-13T04:03:00.713Z,0
2018-12-13T04:04:00.694Z,0
2018-12-13T04:05:00.685Z,0
2018-12-13T04:06:00.670Z,0
2018-12-13T04:07:00.651Z,0
2018-12-13T04:08:00.633Z,0
2018-12-13T04:09:00.629Z,0
2018-12-13T04:10:00.865Z,0
2018-12-13T04:11:00.644Z,0
2018-12-13T04:12:00.575Z,0
2018-12-13T04:13:00.562Z,0
2018-12-13T04:14:00.560Z,0
2018-12-13T04:15:00.552Z,0
2018-12-13T04:16:00.591Z,0
2018-12-13T04:17:00.526Z,0
2018-12-13T04:18:00.491Z,0
2018-12-13T04:19:00.496Z,0
2018-12-13T04:20:00.485Z,0
2018-12-13T04:21:00.464Z,0
2018-12-13T04:22:00.440Z,0
2018-12-13T04:23:00.423Z,0
2018-12-13T04:24:00.493Z,0
2018-12-13T04:25:00.395Z,0
2018-12-13T04:26:00.389Z,0
2018-12-13T04:27:00.116Z,0
2018-12-13T04:28:00.353Z,0
2018-12-13T04:29:00.345Z,0
2018-12-13T04:30:00.341Z,0
2018-12-13T04:31:00.302Z,0
2018-12-13T04:32:00.296Z,0
2018-12-13T04:33:00.042Z,0
2018-12-13T04:34:00.267Z,0
2018-12-13T04:35:00.260Z,0
2018-12-13T04:35:59.992Z,0
2018-12-13T04:37:00.222Z,0
2018-12-13T04:38:00.200Z,0
2018-12-13T04:39:00.198Z,0
2018-12-13T04:40:00.175Z,0
2018-12-13T04:41:00.422Z,0
2018-12-13T04:42:00.140Z,0
2018-12-13T04:43:00.130Z,0
2018-12-13T04:44:00.126Z,0
2018-12-13T04:44:59.871Z,0
2018-12-13T04:46:00.093Z,0
2018-12-13T04:46:59.835Z,0
2018-12-13T04:48:00.062Z,0
2018-12-13T04:49:00.046Z,0
2018-12-13T04:50:01.509Z,0
2018-12-13T04:51:00.021Z,0
2018-12-13T04:52:00.011Z,0
2018-12-13T04:52:59.995Z,0
2018-12-13T04:53:59.986Z,0
2018-12-13T04:54:59.959Z,0
2018-12-13T04:55:59.945Z,0
2018-12-13T04:56:59.934Z,0
2018-12-13T04:57:59.916Z,0
2018-12-13T04:58:59.911Z,0
2018-12-13T04:59:59.895Z,0
2018-12-13T05:00:59.874Z,0
2018-12-13T05:01:59.868Z,0
2018-12-13T05:02:59.845Z,0
2018-12-13T05:03:59.840Z,0
2018-12-13T05:04:59.817Z,0
2018-12-13T05:05:59.806Z,0
2018-12-13T05:06:59.798Z,0
2018-12-13T05:07:59.778Z,0
2018-12-13T05:08:59.762Z,0
2018-12-13T05:09:59.757Z,0
2018-12-13T05:10:59.737Z,0
2018-12-13T05:11:59.713Z,0
2018-12-13T05:12:59.955Z,0
2018-12-13T05:13:59.687Z,0
2018-12-13T05:14:59.677Z,0
2018-12-13T05:15:59.662Z,0
2018-12-13T05:16:59.651Z,0
2018-12-13T05:17:59.639Z,0
2018-12-13T05:18:59.620Z,0
2018-12-13T05:19:59.609Z,0
2018-12-13T05:20:59.592Z,0
2018-12-13T05:21:59.581Z,0
2018-12-13T05:22:59.567Z,0
2018-12-13T05:23:59.554Z,0
2018-12-13T05:24:59.535Z,0
2018-12-13T05:25:59.522Z,0
2018-12-13T05:26:59.508Z,0
2018-12-13T05:27:59.502Z,0
2018-12-13T05:28:59.487Z,0
2018-12-13T05:29:59.464Z,0
2018-12-13T05:30:59.457Z,0
2018-12-13T05:31:59.435Z,0
2018-12-13T05:32:59.422Z,0
2018-12-13T05:33:59.411Z,0
2018-12-13T05:34:59.393Z,0
2018-12-13T05:35:59.387Z,0
2018-12-13T05:36:59.368Z,0
2018-12-13T05:37:59.354Z,0
2018-12-13T05:38:59.330Z,0
2018-12-13T05:39:59.321Z,0
2018-12-13T05:40:59.308Z,0
2018-12-13T05:41:59.294Z,0
2018-12-13T05:42:59.354Z,0
2018-12-13T05:43:59.512Z,0
2018-12-13T05:44:59.252Z,0
2018-12-13T05:45:59.230Z,0
2018-12-13T05:46:59.222Z,0
2018-12-13T05:47:59.218Z,0
2018-12-13T05:48:59.363Z,0
2018-12-13T05:49:59.180Z,0
2018-12-13T05:50:59.163Z,0
2018-12-13T05:51:59.161Z,0
2018-12-13T05:52:59.139Z,0
2018-12-13T05:53:59.126Z,0
2018-12-13T05:54:59.111Z,0
2018-12-13T05:55:59.092Z,0
2018-12-13T05:56:59.078Z,0
2018-12-13T05:57:58.830Z,0
2018-12-13T05:58:59.051Z,0
2018-12-13T05:59:59.046Z,0
2018-12-13T06:00:59.287Z,0
2018-12-13T06:01:59.009Z,0
2018-12-13T06:02:58.987Z,0
2018-12-13T06:03:58.991Z,0
2018-12-13T06:04:58.963Z,0
2018-12-13T06:05:58.989Z,0
2018-12-13T06:06:58.936Z,0
2018-12-13T06:08:04.406Z,0
2018-12-13T06:08:58.911Z,0
2018-12-13T06:09:58.895Z,0
2018-12-13T06:10:58.877Z,0
2018-12-13T06:11:58.880Z,0
2018-12-13T06:12:58.844Z,0
2018-12-13T06:13:58.834Z,0
2018-12-13T06:14:59.071Z,0
2018-12-13T06:15:58.801Z,0
2018-12-13T06:16:58.788Z,0
2018-12-13T06:17:58.784Z,0
2018-12-13T06:18:58.799Z,0
2018-12-13T06:19:58.749Z,0
2018-12-13T06:20:58.736Z,0
2018-12-13T06:21:58.720Z,0
2018-12-13T06:22:58.710Z,0
2018-12-13T06:23:58.692Z,0
2018-12-13T06:24:58.682Z,0
2018-12-13T06:26:00.017Z,0
2018-12-13T06:26:58.659Z,0
2018-12-13T06:27:58.677Z,0
2018-12-13T06:28:58.628Z,0
2018-12-13T06:30:09.773Z,0
2018-12-13T06:30:58.357Z,0
2018-12-13T06:31:58.340Z,0
2018-12-13T06:32:58.563Z,0
2018-12-13T06:33:58.559Z,0
2018-12-13T06:34:58.538Z,0
2018-12-13T06:35:58.517Z,0
2018-12-13T06:36:58.515Z,0
2018-12-13T06:38:03.732Z,0
2018-12-13T06:38:58.477Z,0
2018-12-13T06:39:58.967Z,0
2018-12-13T06:40:58.459Z,0
2018-12-13T06:41:58.431Z,0
2018-12-13T06:42:58.181Z,0
2018-12-13T06:43:59.472Z,0
2018-12-13T06:44:58.393Z,0
2018-12-13T06:45:58.380Z,0
2018-12-13T06:46:58.368Z,0
2018-12-13T06:47:58.367Z,0
2018-12-13T06:48:58.343Z,0
2018-12-13T06:49:58.324Z,0
2018-12-13T06:50:58.307Z,0
2018-12-13T06:51:58.296Z,0
2018-12-13T06:52:58.280Z,0
2018-12-13T06:53:58.270Z,0
2018-12-13T06:54:58.251Z,0
2018-12-13T06:55:58.236Z,0
2018-12-13T06:56:58.229Z,0
2018-12-13T06:57:58.206Z,0
2018-12-13T06:58:58.207Z,0
2018-12-13T06:59:58.224Z,0
2018-12-13T07:00:58.168Z,0
2018-12-13T07:01:58.153Z,0
2018-12-13T07:02:58.142Z,5
2018-12-13T07:03:57.884Z,5
2018-12-13T07:04:58.109Z,5
2018-12-13T07:05:58.103Z,5
2018-12-13T07:06:58.079Z,5
2018-12-13T07:07:58.070Z,5
2018-12-13T07:08:58.071Z,5
2018-12-13T07:09:57.800Z,5
2018-12-13T07:10:58.025Z,0
2018-12-13T07:11:58.012Z,0
2018-12-13T07:12:57.752Z,0
2018-12-13T07:13:58.028Z,5
2018-12-13T07:14:57.974Z,5
2018-12-13T07:15:57.955Z,5
2018-12-13T07:16:58.189Z,5
2018-12-13T07:17:57.931Z,5
2018-12-13T07:18:57.916Z,5
2018-12-13T07:19:57.900Z,5
2018-12-13T07:20:57.888Z,0
2018-12-13T07:21:57.634Z,0
2018-12-13T07:22:57.857Z,5
2018-12-13T07:23:57.844Z,5
2018-12-13T07:24:57.831Z,5
2018-12-13T07:25:57.824Z,10
2018-12-13T07:26:57.800Z,10
2018-12-13T07:27:57.788Z,10
2018-12-13T07:28:57.770Z,10
2018-12-13T07:29:57.758Z,10
2018-12-13T07:30:57.755Z,10
2018-12-13T07:31:57.729Z,10
2018-12-13T07:32:57.731Z,10
2018-12-13T07:33:57.702Z,10
2018-12-13T07:35:03.637Z,10
2018-12-13T07:35:57.674Z,10
2018-12-13T07:36:57.692Z,10
2018-12-13T07:37:57.647Z,10
2018-12-13T07:38:58.016Z,10
2018-12-13T07:39:57.626Z,10
2018-12-13T07:40:57.603Z,15
2018-12-13T07:41:57.606Z,15
2018-12-13T07:42:57.576Z,20
2018-12-13T07:43:57.567Z,20
2018-12-13T07:44:57.544Z,25
2018-12-13T07:45:57.534Z,30
2018-12-13T07:46:57.522Z,25
2018-12-13T07:47:57.754Z,25
2018-12-13T07:49:03.255Z,25
2018-12-13T07:49:57.496Z,25
2018-12-13T07:50:57.463Z,25
2018-12-13T07:51:57.446Z,30
2018-12-13T07:52:57.440Z,30
2018-12-13T07:53:57.421Z,30
2018-12-13T07:54:57.474Z,35
2018-12-13T07:55:57.391Z,35
2018-12-13T07:56:57.377Z,35
2018-12-13T07:57:57.362Z,35
2018-12-13T07:58:57.361Z,40
2018-12-13T07:59:57.330Z,45
2018-12-13T08:00:57.325Z,45
2018-12-13T08:01:57.306Z,40
2018-12-13T08:02:57.292Z,40
2018-12-13T08:03:57.275Z,45
2018-12-13T08:04:57.262Z,45
2018-12-13T08:05:57.255Z,50
2018-12-13T08:06:57.245Z,55
2018-12-13T08:07:57.239Z,55
2018-12-13T08:08:57.207Z,55
2018-12-13T08:09:57.191Z,55
2018-12-13T08:10:57.186Z,60
2018-12-13T08:11:57.165Z,60
2018-12-13T08:12:57.148Z,65
2018-12-13T08:13:57.144Z,65
2018-12-13T08:14:57.121Z,65
2018-12-13T08:15:57.153Z,60
2018-12-13T08:16:57.107Z,60
2018-12-13T08:17:57.080Z,60
2018-12-13T08:18:57.067Z,55
2018-12-13T08:19:57.301Z,60
2018-12-13T08:20:57.035Z,60
2018-12-13T08:21:57.023Z,65
2018-12-13T08:22:57.061Z,65
2018-12-13T08:23:56.997Z,65
2018-12-13T08:24:56.991Z,65
2018-12-13T08:25:56.968Z,65
2018-12-13T08:26:56.953Z,65
2018-12-13T08:27:56.937Z,65
2018-12-13T08:28:56.926Z,65
2018-12-13T08:29:56.910Z,65
2018-12-13T08:30:56.895Z,70
2018-12-13T08:31:56.882Z,65
2018-12-13T08:32:56.872Z,65
2018-12-13T08:33:56.863Z,65
2018-12-13T08:34:56.842Z,60
2018-12-13T08:35:56.832Z,65
2018-12-13T08:36:56.823Z,65
2018-12-13T08:37:56.799Z,55
2018-12-13T08:38:56.791Z,55
2018-12-13T08:39:56.534Z,55
2018-12-13T08:40:56.768Z,55
2018-12-13T08:41:56.753Z,55
2018-12-13T08:42:56.737Z,50
2018-12-13T08:43:56.740Z,45
2018-12-13T08:44:56.750Z,45
2018-12-13T08:45:56.451Z,45
2018-12-13T08:46:56.683Z,50
2018-12-13T08:47:56.665Z,60
2018-12-13T08:48:56.651Z,65
2018-12-13T08:49:56.634Z,60
2018-12-13T08:50:56.873Z,65
2018-12-13T08:51:56.615Z,60
2018-12-13T08:52:56.602Z,60
2018-12-13T08:53:56.581Z,60
2018-12-13T08:54:56.569Z,65
2018-12-13T08:55:56.557Z,75
2018-12-13T08:56:56.539Z,80
2018-12-13T08:57:56.528Z,75
2018-12-13T08:58:56.518Z,70
2018-12-13T08:59:56.499Z,65
2018-12-13T09:00:56.493Z,65
2018-12-13T09:01:57.607Z,65
2018-12-13T09:02:56.464Z,60
2018-12-13T09:03:56.447Z,65
2018-12-13T09:04:56.439Z,65
2018-12-13T09:05:56.417Z,65
2018-12-13T09:06:57.069Z,65
2018-12-13T09:07:56.392Z,65
2018-12-13T09:08:56.373Z,65
2018-12-13T09:09:56.364Z,75
2018-12-13T09:10:56.344Z,70
2018-12-13T09:11:56.334Z,65
2018-12-13T09:12:56.330Z,65
2018-12-13T09:13:56.311Z,60
2018-12-13T09:14:56.297Z,60
2018-12-13T09:15:56.279Z,55
2018-12-13T09:16:56.267Z,60
2018-12-13T09:17:56.251Z,60
2018-12-13T09:18:56.248Z,65
2018-12-13T09:19:56.239Z,65
2018-12-13T09:20:56.261Z,60
2018-12-13T09:21:56.194Z,60
2018-12-13T09:22:56.189Z,60
2018-12-13T09:23:56.178Z,60
2018-12-13T09:24:56.157Z,65
2018-12-13T09:25:56.147Z,60
2018-12-13T09:26:56.132Z,60
2018-12-13T09:27:56.123Z,60
2018-12-13T09:28:56.109Z,60
2018-12-13T09:29:56.084Z,55
2018-12-13T09:30:56.071Z,60
2018-12-13T09:31:56.076Z,60
2018-12-13T09:32:56.048Z,60
2018-12-13T09:33:56.042Z,60
2018-12-13T09:34:56.022Z,70
2018-12-13T09:35:56.009Z,70
2018-12-13T09:36:56.001Z,65
2018-12-13T09:37:57.170Z,65
2018-12-13T09:38:55.963Z,65
2018-12-13T09:39:55.953Z,70
2018-12-13T09:40:55.696Z,70
2018-12-13T09:41:55.925Z,85
2018-12-13T09:42:55.916Z,90
2018-12-13T09:43:55.898Z,95
2018-12-13T09:44:55.885Z,95
2018-12-13T09:45:55.871Z,80
2018-12-13T09:46:55.868Z,90
2018-12-13T09:47:55.848Z,90
2018-12-13T09:48:56.529Z,95
2018-12-13T09:49:55.831Z,85
2018-12-13T09:50:55.797Z,90
2018-12-13T09:51:55.784Z,85
2018-12-13T09:52:56.025Z,90
2018-12-13T09:53:55.768Z,95
2018-12-13T09:54:55.750Z,95
2018-12-13T09:55:55.734Z,85
2018-12-13T09:56:55.716Z,75
2018-12-13T09:57:55.705Z,75
2018-12-13T09:58:55.694Z,80
2018-12-13T09:59:55.683Z,105
2018-12-13T10:00:55.667Z,80
2018-12-13T10:01:55.653Z,80
2018-12-13T10:02:55.638Z,85
2018-12-13T10:03:55.626Z,90
2018-12-13T10:04:55.664Z,80
2018-12-13T10:05:55.598Z,80
2018-12-13T10:06:55.586Z,80
2018-12-13T10:07:55.572Z,90
2018-12-13T10:08:55.940Z,95
2018-12-13T10:09:55.546Z,95
2018-12-13T10:10:55.545Z,95
2018-12-13T10:11:55.517Z,95
2018-12-13T10:12:55.502Z,90
2018-12-13T10:13:55.496Z,95
2018-12-13T10:14:55.478Z,110
2018-12-13T10:15:55.463Z,120
2018-12-13T10:16:55.453Z,105
2018-12-13T10:17:55.442Z,85
2018-12-13T10:18:55.435Z,80
2018-12-13T10:19:55.411Z,95
2018-12-13T10:20:55.396Z,110
2018-12-13T10:21:55.387Z,105
2018-12-13T10:22:55.389Z,95
2018-12-13T10:23:55.609Z,90
2018-12-13T10:24:55.348Z,90
2018-12-13T10:26:01.867Z,80
2018-12-13T10:26:55.316Z,75
2018-12-13T10:27:55.325Z,80
2018-12-13T10:28:55.055Z,95
2018-12-13T10:29:55.280Z,95
2018-12-13T10:30:55.272Z,90
2018-12-13T10:31:55.255Z,80
2018-12-13T10:32:55.241Z,80
2018-12-13T10:33:55.232Z,80
2018-12-13T10:34:55.223Z,75
2018-12-13T10:35:55.204Z,65
2018-12-13T10:36:55.191Z,70
2018-12-13T10:37:55.158Z,70
2018-12-13T10:39:00.216Z,80
2018-12-13T10:39:55.131Z,75
2018-12-13T10:40:55.117Z,70
2018-12-13T10:41:55.107Z,70
2018-12-13T10:42:55.084Z,70
2018-12-13T10:43:55.074Z,70
2018-12-13T10:44:55.069Z,70
2018-12-13T10:45:55.046Z,70
2018-12-13T10:46:56.599Z,70
2018-12-13T10:47:55.021Z,55
2018-12-13T10:48:55.009Z,45
2018-12-13T10:49:54.992Z,40
2018-12-13T10:50:54.984Z,40
2018-12-13T10:51:54.965Z,40
2018-12-13T10:52:54.979Z,45
2018-12-13T10:53:54.965Z,45
2018-12-13T10:54:54.944Z,65
2018-12-13T10:55:54.931Z,60
2018-12-13T10:56:54.920Z,55
2018-12-13T10:57:54.916Z,55
2018-12-13T10:58:54.953Z,50
2018-12-13T10:59:54.881Z,50
2018-12-13T11:00:54.876Z,40
2018-12-13T11:01:54.852Z,45
2018-12-13T11:02:54.850Z,50
2018-12-13T11:03:54.825Z,65
2018-12-13T11:04:54.816Z,65
2018-12-13T11:05:54.816Z,65
2018-12-13T11:06:54.546Z,75
2018-12-13T11:07:54.771Z,95
2018-12-13T11:08:59.341Z,120
2018-12-13T11:09:54.751Z,130
2018-12-13T11:10:54.732Z,140
2018-12-13T11:11:54.725Z,125
2018-12-13T11:12:54.480Z,110
2018-12-13T11:13:54.697Z,90
2018-12-13T11:14:54.677Z,80
2018-12-13T11:15:54.670Z,65
2018-12-13T11:16:54.666Z,65
2018-12-13T11:17:54.637Z,65
2018-12-13T11:18:54.623Z,55
2018-12-13T11:19:54.611Z,55
2018-12-13T11:20:54.599Z,60
2018-12-13T11:21:54.342Z,65
2018-12-13T11:22:54.574Z,70
2018-12-13T11:23:54.570Z,70
2018-12-13T11:24:54.551Z,70
2018-12-13T11:25:54.535Z,70
2018-12-13T11:26:54.771Z,65
2018-12-13T11:27:54.500Z,60
2018-12-13T11:28:54.486Z,60
2018-12-13T11:29:54.501Z,65
2018-12-13T11:30:54.508Z,65
2018-12-13T11:31:54.748Z,70
2018-12-13T11:32:54.440Z,65
2018-12-13T11:33:54.424Z,65
2018-12-13T11:34:54.411Z,55
2018-12-13T11:35:54.393Z,50
2018-12-13T11:36:54.385Z,50
2018-12-13T11:37:54.368Z,50
2018-12-13T11:38:54.355Z,45
2018-12-13T11:39:54.347Z,45
2018-12-13T11:40:54.326Z,60
2018-12-13T11:41:54.313Z,70
2018-12-13T11:42:54.328Z,70
2018-12-13T11:43:54.287Z,70
2018-12-13T11:44:54.292Z,60
2018-12-13T11:45:54.299Z,55
2018-12-13T11:46:54.004Z,55
2018-12-13T11:47:54.233Z,55
2018-12-13T11:48:53.983Z,50
2018-12-13T11:49:54.209Z,45
2018-12-13T11:50:53.950Z,45
2018-12-13T11:51:54.184Z,40
2018-12-13T11:52:54.328Z,35
2018-12-13T11:53:54.149Z,35
2018-12-13T11:54:54.143Z,35
2018-12-13T11:55:54.141Z,35
2018-12-13T11:56:54.110Z,35
2018-12-13T11:57:54.400Z,35
2018-12-13T11:58:54.082Z,30
2018-12-13T11:59:54.067Z,30
2018-12-13T12:00:54.060Z,30
2018-12-13T12:01:54.047Z,30
2018-12-13T12:02:54.031Z,35
2018-12-13T12:03:54.022Z,35
2018-12-13T12:04:54.004Z,45
2018-12-13T12:05:53.990Z,45
2018-12-13T12:06:53.977Z,40
2018-12-13T12:07:53.969Z,40
2018-12-13T12:08:53.714Z,40
2018-12-13T12:09:53.926Z,35
2018-12-13T12:10:53.929Z,35
2018-12-13T12:11:53.903Z,40
2018-12-13T12:12:53.883Z,35
2018-12-13T12:13:53.875Z,35
2018-12-13T12:14:53.623Z,40
2018-12-13T12:15:53.854Z,40
2018-12-13T12:16:53.837Z,35
2018-12-13T12:17:53.820Z,35
2018-12-13T12:18:53.808Z,35
2018-12-13T12:19:53.784Z,35
2018-12-13T12:20:53.783Z,40
2018-12-13T12:21:53.775Z,40
2018-12-13T12:22:53.824Z,40
2018-12-13T12:23:53.736Z,40
2018-12-13T12:24:53.725Z,50
2018-12-13T12:25:53.714Z,55
2018-12-13T12:26:53.695Z,55
2018-12-13T12:27:53.680Z,55
2018-12-13T12:28:53.919Z,55
2018-12-13T12:29:53.658Z,55
2018-12-13T12:30:53.641Z,55
2018-12-13T12:31:53.623Z,60
2018-12-13T12:32:53.605Z,60
2018-12-13T12:33:53.597Z,60
2018-12-13T12:34:53.593Z,50
2018-12-13T12:35:53.576Z,45
2018-12-13T12:36:53.557Z,45
2018-12-13T12:37:53.542Z,40
2018-12-13T12:38:53.528Z,40
2018-12-13T12:39:53.514Z,40
2018-12-13T12:40:53.498Z,40
2018-12-13T12:41:53.487Z,35
2018-12-13T12:42:53.470Z,35
2018-12-13T12:43:53.458Z,30
2018-12-13T12:44:53.443Z,30
2018-12-13T12:45:53.427Z,30
2018-12-13T12:46:53.437Z,30
2018-12-13T12:47:53.406Z,30
2018-12-13T12:48:53.393Z,30
2018-12-13T12:49:53.456Z,30
2018-12-13T12:50:53.374Z,35
2018-12-13T12:51:53.349Z,35
2018-12-13T12:52:53.335Z,35
2018-12-13T12:53:53.317Z,35
2018-12-13T12:54:53.300Z,35
2018-12-13T12:55:53.292Z,30
2018-12-13T12:56:53.282Z,35
2018-12-13T12:57:53.283Z,35
2018-12-13T12:58:53.249Z,35
2018-12-13T12:59:53.480Z,35
2018-12-13T13:00:53.262Z,35
2018-12-13T13:01:53.208Z,40
2018-12-13T13:02:54.721Z,40
2018-12-13T13:03:52.937Z,35
2018-12-13T13:04:53.169Z,35
2018-12-13T13:05:53.157Z,35
2018-12-13T13:06:53.138Z,35
2018-12-13T13:07:53.119Z,35
2018-12-13T13:08:53.108Z,35
2018-12-13T13:09:53.097Z,40
2018-12-13T13:10:53.106Z,45
2018-12-13T13:11:53.066Z,55
2018-12-13T13:12:53.054Z,60
2018-12-13T13:13:53.105Z,80
2018-12-13T13:14:53.032Z,110
2018-12-13T13:15:53.021Z,115
2018-12-13T13:16:53.002Z,115
2018-12-13T13:17:52.992Z,115
2018-12-13T13:18:52.982Z,110
2018-12-13T13:19:52.957Z,110
2018-12-13T13:20:54.618Z,105
2018-12-13T13:21:52.929Z,100
2018-12-13T13:22:52.914Z,95
2018-12-13T13:23:52.906Z,90
2018-12-13T13:24:52.895Z,85
2018-12-13T13:25:52.872Z,80
2018-12-13T13:26:52.867Z,80
2018-12-13T13:27:53.109Z,80
2018-12-13T13:28:52.832Z,80
2018-12-13T13:29:52.826Z,80
2018-12-13T13:30:53.063Z,85
2018-12-13T13:31:52.800Z,85
2018-12-13T13:32:52.783Z,85
2018-12-13T13:33:52.780Z,90
2018-12-13T13:34:52.773Z,90
2018-12-13T13:35:52.747Z,90
2018-12-13T13:36:52.729Z,90
2018-12-13T13:37:52.721Z,90
2018-12-13T13:38:52.775Z,90
2018-12-13T13:39:52.684Z,85
2018-12-13T13:40:52.672Z,85
2018-12-13T13:41:52.665Z,80
2018-12-13T13:42:52.648Z,80
2018-12-13T13:43:52.673Z,75
2018-12-13T13:44:52.622Z,75
2018-12-13T13:45:52.653Z,75
2018-12-13T13:46:52.881Z,70
2018-12-13T13:47:52.582Z,70
2018-12-13T13:48:52.580Z,65
2018-12-13T13:49:52.562Z,65
2018-12-13T13:50:52.541Z,65
2018-12-13T13:51:52.533Z,65
2018-12-13T13:52:52.518Z,60
2018-12-13T13:53:52.507Z,60
2018-12-13T13:54:52.487Z,55
2018-12-13T13:55:52.477Z,50
2018-12-13T13:56:52.464Z,45
2018-12-13T13:57:52.461Z,45
2018-12-13T13:58:52.442Z,45
2018-12-13T13:59:52.433Z,40
2018-12-13T14:00:52.417Z,40
2018-12-13T14:01:54.137Z,35
2018-12-13T14:02:52.448Z,35
2018-12-13T14:03:52.390Z,30
2018-12-13T14:04:52.362Z,25
2018-12-13T14:05:52.341Z,25
2018-12-13T14:06:52.341Z,25
2018-12-13T14:07:52.320Z,25
2018-12-13T14:08:52.315Z,25
2018-12-13T14:09:52.293Z,25
2018-12-13T14:10:52.284Z,30
2018-12-13T14:11:52.266Z,30
2018-12-13T14:12:52.255Z,25
2018-12-13T14:13:52.242Z,25
2018-12-13T14:14:52.226Z,25
2018-12-13T14:15:52.212Z,25
2018-12-13T14:16:52.197Z,25
2018-12-13T14:17:52.188Z,20
2018-12-13T14:18:52.177Z,20
2018-12-13T14:19:52.168Z,20
2018-12-13T14:20:52.143Z,20
2018-12-13T14:21:52.133Z,20
2018-12-13T14:22:52.127Z,20
2018-12-13T14:23:52.101Z,20
2018-12-13T14:24:52.093Z,20
2018-12-13T14:25:52.085Z,15
2018-12-13T14:26:52.064Z,15
2018-12-13T14:27:52.052Z,15
2018-12-13T14:28:52.039Z,15
2018-12-13T14:29:52.028Z,15